Time;durP1;ratioP1;P1;durP2;ratioP2;P2;SDS_P1;SDS_P2;PMS_P1;PMS_P2;Temp;Humidity;BMP_temperature;BMP_pressure;BME280_temperature;BME280_humidity;BME280_pressure;Samples;Min_cycle;Max_cycle;Signal;HPM_P1;HPM_P2
2022/10/22 00:01:37;;;;;;;2.03;0.95;;;;;;;;;;5054340;28;20080;-68
2022/10/22 00:04:04;;;;;;;1.85;0.70;;;;;;;;;;5054335;28;20045;-68
2022/10/22 00:06:31;;;;;;;1.50;0.55;;;;;;;;;;5054600;28;20122;-68
2022/10/22 00:08:57;;;;;;;1.00;0.70;;;;;;;;;;5053850;28;20107;-68
2022/10/22 00:11:24;;;;;;;1.90;0.68;;;;;;;;;;5054310;28;20071;-68
2022/10/22 00:13:51;;;;;;;4.07;0.47;;;;;;;;;;5054196;28;20091;-68
2022/10/22 00:16:17;;;;;;;2.92;0.90;;;;;;;;;;5054089;28;20423;-69
2022/10/22 00:18:44;;;;;;;1.35;0.60;;;;;;;;;;5053304;28;20049;-68
2022/10/22 00:21:11;;;;;;;3.97;0.80;;;;;;;;;;5054456;28;20102;-68
2022/10/22 00:23:41;;;;;;;1.40;0.60;;;;;;;;;;5036636;28;20075;-68
2022/10/22 00:26:08;;;;;;;2.03;0.50;;;;;;;;;;5062782;28;20096;-69
2022/10/22 00:28:35;;;;;;;1.50;0.50;;;;;;;;;;5073390;28;20098;-68
2022/10/22 00:31:02;;;;;;;1.30;0.52;;;;;;;;;;5073869;28;20556;-68
2022/10/22 00:33:29;;;;;;;2.53;0.80;;;;;;;;;;5073700;28;20048;-68
2022/10/22 00:35:55;;;;;;;1.33;0.55;;;;;;;;;;5073215;28;20119;-68
2022/10/22 00:38:22;;;;;;;2.67;0.45;;;;;;;;;;5073377;28;20048;-68
2022/10/22 00:40:49;;;;;;;1.27;0.82;;;;;;;;;;5073784;28;20071;-68
2022/10/22 00:43:18;;;;;;;2.13;0.55;;;;;;;;;;5073652;28;20044;-68
2022/10/22 00:45:44;;;;;;;1.80;0.70;;;;;;;;;;5073556;28;20530;-68
2022/10/22 00:48:17;;;;;;;1.58;0.57;;;;;;;;;;5073028;28;20049;-68
2022/10/22 00:50:49;;;;;;;3.13;0.77;;;;;;;;;;5056765;28;20083;-68
2022/10/22 00:53:19;;;;;;;1.35;0.60;;;;;;;;;;5049811;28;20069;-68
2022/10/22 00:55:48;;;;;;;0.70;0.55;;;;;;;;;;5035965;28;20087;-68
2022/10/22 00:58:14;;;;;;;1.30;0.60;;;;;;;;;;5033836;28;20195;-68
2022/10/22 01:00:41;;;;;;;1.00;0.60;;;;;;;;;;5053290;28;20518;-68
2022/10/22 01:03:08;;;;;;;0.73;0.50;;;;;;;;;;5053555;28;20045;-68
2022/10/22 01:05:51;;;;;;;1.95;0.50;;;;;;;;;;5053173;28;20048;-68
2022/10/22 01:08:41;;;;;;;1.25;0.73;;;;;;;;;;5036634;28;20522;-68
2022/10/22 01:11:24;;;;;;;1.05;0.50;;;;;;;;;;5038441;28;20045;-68
2022/10/22 01:14:21;;;;;;;1.48;0.60;;;;;;;;;;5020766;28;20076;-68
2022/10/22 01:17:12;;;;;;;1.90;0.50;;;;;;;;;;5011473;28;20107;-68
2022/10/22 01:19:57;;;;;;;1.48;0.60;;;;;;;;;;5052202;28;20518;-68
2022/10/22 01:22:38;;;;;;;1.45;0.60;;;;;;;;;;5066397;28;20106;-68
2022/10/22 01:25:11;;;;;;;0.80;0.60;;;;;;;;;;5019935;28;20049;-68
2022/10/22 01:27:43;;;;;;;;;;;;;;;;;;5019829;28;20049;-68
2022/10/22 01:30:10;;;;;;;2.90;0.70;;;;;;;;;;5052426;28;20366;-68
2022/10/22 01:32:47;;;;;;;0.50;0.45;;;;;;;;;;5035339;28;20113;-68
2022/10/22 01:35:16;;;;;;;0.85;0.50;;;;;;;;;;5019423;28;20075;-69
2022/10/22 01:38:00;;;;;;;0.63;0.60;;;;;;;;;;5035105;28;20110;-68
2022/10/22 01:40:27;;;;;;;3.85;0.77;;;;;;;;;;5019878;28;20106;-68
2022/10/22 01:42:58;;;;;;;2.08;0.65;;;;;;;;;;5035051;28;20470;-69
2022/10/22 01:45:26;;;;;;;0.75;0.45;;;;;;;;;;5034973;28;20049;-68
2022/10/22 01:48:21;;;;;;;2.85;0.75;;;;;;;;;;5018001;28;20052;-68
2022/10/22 01:51:06;;;;;;;0.80;0.60;;;;;;;;;;5034833;28;20098;-68
2022/10/22 01:54:02;;;;;;;2.45;0.50;;;;;;;;;;5060150;28;20053;-68
2022/10/22 01:56:39;;;;;;;0.50;0.50;;;;;;;;;;5034202;28;20053;-68
2022/10/22 01:59:07;;;;;;;0.90;0.65;;;;;;;;;;5055185;28;20560;-69
2022/10/22 02:01:57;;;;;;;2.72;0.70;;;;;;;;;;5054341;28;20515;-68
2022/10/22 02:04:42;;;;;;;0.60;0.60;;;;;;;;;;5072272;28;20478;-68
2022/10/22 02:07:10;;;;;;;1.40;0.70;;;;;;;;;;5038817;28;20052;-68
2022/10/22 02:09:37;;;;;;;1.98;0.98;;;;;;;;;;5053953;28;20060;-68
2022/10/22 02:12:05;;;;;;;3.13;0.80;;;;;;;;;;5054390;28;20426;-68
2022/10/22 02:14:32;;;;;;;1.73;0.75;;;;;;;;;;5054472;28;20048;-68
2022/10/22 02:16:58;;;;;;;0.98;0.60;;;;;;;;;;5032932;28;20060;-68
2022/10/22 02:19:28;;;;;;;3.95;0.70;;;;;;;;;;5017191;28;20082;-68
2022/10/22 02:21:55;;;;;;;1.15;0.70;;;;;;;;;;5034022;28;20053;-68
2022/10/22 02:24:21;;;;;;;0.75;0.65;;;;;;;;;;5018240;28;20077;-68
2022/10/22 02:26:54;;;;;;;2.60;0.88;;;;;;;;;;5051748;28;20101;-68
2022/10/22 02:29:26;;;;;;;2.35;0.70;;;;;;;;;;5042223;28;20040;-69
2022/10/22 02:31:53;;;;;;;2.28;0.77;;;;;;;;;;5038030;28;20082;-68
2022/10/22 02:34:21;;;;;;;4.00;1.30;;;;;;;;;;5037617;28;20048;-68
2022/10/22 02:36:48;;;;;;;1.15;0.60;;;;;;;;;;5037632;28;20106;-68
2022/10/22 02:39:17;;;;;;;1.98;0.60;;;;;;;;;;5053645;28;20414;-68
2022/10/22 02:41:43;;;;;;;0.80;0.55;;;;;;;;;;5025626;28;20044;-69
2022/10/22 02:44:10;;;;;;;0.50;0.47;;;;;;;;;;5018335;28;20048;-68
2022/10/22 02:46:37;;;;;;;0.85;0.50;;;;;;;;;;5051521;28;20053;-68
2022/10/22 02:49:04;;;;;;;0.95;0.55;;;;;;;;;;5017192;28;20107;-68
2022/10/22 02:51:30;;;;;;;0.80;0.50;;;;;;;;;;5051698;28;20419;-68
2022/10/22 02:53:57;;;;;;;0.77;0.60;;;;;;;;;;5065911;28;20052;-68
2022/10/22 02:56:24;;;;;;;1.35;0.60;;;;;;;;;;5071039;28;20056;-68
2022/10/22 02:58:50;;;;;;;2.08;0.55;;;;;;;;;;5073391;28;20094;-68
2022/10/22 03:01:17;;;;;;;2.72;0.60;;;;;;;;;;5078104;28;20056;-68
2022/10/22 03:03:44;;;;;;;0.90;0.80;;;;;;;;;;5078005;28;20048;-68
2022/10/22 03:06:10;;;;;;;2.33;0.65;;;;;;;;;;5061619;28;20049;-68
2022/10/22 03:08:37;;;;;;;0.65;0.47;;;;;;;;;;5057518;28;20083;-68
2022/10/22 03:11:04;;;;;;;0.38;0.35;;;;;;;;;;5058044;28;20136;-68
2022/10/22 03:13:30;;;;;;;1.15;0.47;;;;;;;;;;5057814;28;20056;-68
2022/10/22 03:15:57;;;;;;;0.50;0.50;;;;;;;;;;5057847;28;20049;-68
2022/10/22 03:18:23;;;;;;;1.05;0.50;;;;;;;;;;5076332;28;20052;-68
2022/10/22 03:21:00;;;;;;;0.55;0.50;;;;;;;;;;5077805;28;20144;-68
2022/10/22 03:23:27;;;;;;;0.43;0.35;;;;;;;;;;5060723;28;20044;-68
2022/10/22 03:25:53;;;;;;;1.70;0.40;;;;;;;;;;5043715;28;20086;-68
2022/10/22 03:28:20;;;;;;;2.65;0.68;;;;;;;;;;5077248;28;20071;-68
2022/10/22 03:30:47;;;;;;;1.88;0.60;;;;;;;;;;5078041;28;20105;-68
2022/10/22 03:33:13;;;;;;;0.40;0.40;;;;;;;;;;5077088;28;20036;-68
2022/10/22 03:35:43;;;;;;;2.55;0.50;;;;;;;;;;5073966;28;20515;-68
2022/10/22 03:38:11;;;;;;;0.60;0.43;;;;;;;;;;5059787;28;20044;-68
2022/10/22 03:40:38;;;;;;;2.40;0.60;;;;;;;;;;5064962;28;20049;-68
2022/10/22 03:43:04;;;;;;;1.65;0.50;;;;;;;;;;5023715;28;20052;-68
2022/10/22 03:45:31;;;;;;;0.47;0.40;;;;;;;;;;5039986;28;20053;-68
2022/10/22 03:47:58;;;;;;;1.40;0.60;;;;;;;;;;5057178;28;20107;-68
2022/10/22 03:50:25;;;;;;;0.75;0.40;;;;;;;;;;5057649;28;20106;-68
2022/10/22 03:52:52;;;;;;;3.78;1.02;;;;;;;;;;5068658;28;20439;-68
2022/10/22 03:55:19;;;;;;;3.55;0.60;;;;;;;;;;5077421;28;20474;-68
2022/10/22 03:57:46;;;;;;;1.17;0.68;;;;;;;;;;5077907;28;20110;-68
2022/10/22 04:00:13;;;;;;;1.27;0.50;;;;;;;;;;5077380;28;20052;-67
2022/10/22 04:02:40;;;;;;;3.67;0.73;;;;;;;;;;5077785;28;20044;-68
2022/10/22 04:05:06;;;;;;;1.85;0.75;;;;;;;;;;5077910;28;20052;-68
2022/10/22 04:07:33;;;;;;;3.90;0.50;;;;;;;;;;5077667;28;20048;-68
2022/10/22 04:10:00;;;;;;;1.40;0.55;;;;;;;;;;5074995;28;20053;-68
2022/10/22 04:12:26;;;;;;;1.63;0.70;;;;;;;;;;5074259;28;20126;-68
2022/10/22 04:14:53;;;;;;;1.02;0.70;;;;;;;;;;5074315;28;20102;-68
2022/10/22 04:17:20;;;;;;;2.55;0.60;;;;;;;;;;5074511;28;20048;-68
2022/10/22 04:19:46;;;;;;;2.15;0.52;;;;;;;;;;5073709;28;20095;-68
2022/10/22 04:22:13;;;;;;;0.93;0.50;;;;;;;;;;5082824;28;20059;-68
2022/10/22 04:24:39;;;;;;;1.77;0.57;;;;;;;;;;5085867;28;20102;-68
2022/10/22 04:27:06;;;;;;;0.45;0.45;;;;;;;;;;5079496;28;20407;-68
2022/10/22 04:29:33;;;;;;;0.52;0.50;;;;;;;;;;5059085;28;20052;-68
2022/10/22 04:31:59;;;;;;;1.75;0.60;;;;;;;;;;5059702;28;20044;-68
2022/10/22 04:34:27;;;;;;;0.82;0.50;;;;;;;;;;5073294;28;20129;-68
2022/10/22 04:36:54;;;;;;;2.67;1.38;;;;;;;;;;5067556;28;20045;-68
2022/10/22 04:39:21;;;;;;;1.27;0.40;;;;;;;;;;5054765;28;20041;-68
2022/10/22 04:41:48;;;;;;;1.67;0.65;;;;;;;;;;5064053;28;20048;-68
2022/10/22 04:44:14;;;;;;;0.82;0.40;;;;;;;;;;5053834;28;20785;-68
2022/10/22 04:46:43;;;;;;;2.20;0.68;;;;;;;;;;5072709;28;20048;-68
2022/10/22 04:49:10;;;;;;;1.10;0.60;;;;;;;;;;5072860;28;20040;-68
2022/10/22 04:51:36;;;;;;;1.40;0.40;;;;;;;;;;5073431;28;20565;-68
2022/10/22 04:54:03;;;;;;;0.65;0.40;;;;;;;;;;5063829;28;20562;-68
2022/10/22 04:56:30;;;;;;;1.58;0.57;;;;;;;;;;5058470;28;20537;-71
2022/10/22 04:58:59;;;;;;;2.30;0.68;;;;;;;;;;5076648;22;20051;-71
2022/10/22 05:01:28;;;;;;;0.70;0.47;;;;;;;;;;5035659;28;20103;-70
2022/10/22 05:03:59;;;;;;;1.20;0.70;;;;;;;;;;5053342;28;20459;-72
2022/10/22 05:06:27;;;;;;;7.57;0.80;;;;;;;;;;5035748;28;20048;-73
2022/10/22 05:08:57;;;;;;;0.80;0.47;;;;;;;;;;5037084;28;20103;-74
2022/10/22 05:11:27;;;;;;;1.52;0.60;;;;;;;;;;5051490;28;20084;-72
2022/10/22 05:13:55;;;;;;;1.05;0.82;;;;;;;;;;5052706;28;20048;-72
2022/10/22 05:16:23;;;;;;;1.08;0.60;;;;;;;;;;5052503;28;20057;-67
2022/10/22 05:18:49;;;;;;;0.50;0.40;;;;;;;;;;5044811;28;20480;-67
2022/10/22 05:21:18;;;;;;;0.98;0.60;;;;;;;;;;5030269;28;20495;-68
2022/10/22 05:23:45;;;;;;;1.90;0.60;;;;;;;;;;5029435;28;20486;-74
2022/10/22 05:26:13;;;;;;;0.63;0.63;;;;;;;;;;5029171;28;20554;-75
2022/10/22 05:28:39;;;;;;;0.70;0.60;;;;;;;;;;5032939;28;20049;-76
2022/10/22 05:31:07;;;;;;;1.40;0.68;;;;;;;;;;5049822;28;20060;-67
2022/10/22 05:33:34;;;;;;;3.63;0.70;;;;;;;;;;5049288;28;20055;-68
2022/10/22 05:36:02;;;;;;;1.98;1.73;;;;;;;;;;5050633;28;20057;-69
2022/10/22 05:38:29;;;;;;;1.50;1.02;;;;;;;;;;5049276;28;20045;-68
2022/10/22 05:40:59;;;;;;;2.30;1.10;;;;;;;;;;5049848;28;20072;-68
2022/10/22 05:43:26;;;;;;;0.93;0.47;;;;;;;;;;5050372;28;20103;-68
2022/10/22 05:45:53;;;;;;;1.27;0.88;;;;;;;;;;5048910;28;20527;-68
2022/10/22 05:48:20;;;;;;;0.82;0.50;;;;;;;;;;5049590;28;20059;-69
2022/10/22 05:50:49;;;;;;;1.17;0.50;;;;;;;;;;5049984;28;20056;-69
2022/10/22 05:53:17;;;;;;;2.20;1.65;;;;;;;;;;5049392;28;20041;-69
2022/10/22 05:55:44;;;;;;;1.08;0.85;;;;;;;;;;5049146;28;20059;-68
2022/10/22 05:58:11;;;;;;;1.02;0.60;;;;;;;;;;5048246;28;20079;-68
2022/10/22 06:00:38;;;;;;;1.35;0.80;;;;;;;;;;5049520;28;20543;-68
2022/10/22 06:03:05;;;;;;;1.98;0.68;;;;;;;;;;5051050;28;20419;-68
2022/10/22 06:05:37;;;;;;;1.33;0.63;;;;;;;;;;5050852;28;20049;-68
2022/10/22 06:08:04;;;;;;;3.15;1.10;;;;;;;;;;5050333;28;20077;-69
2022/10/22 06:10:31;;;;;;;0.60;0.60;;;;;;;;;;5050211;28;20397;-68
2022/10/22 06:12:57;;;;;;;4.95;1.58;;;;;;;;;;5049806;28;20107;-74
2022/10/22 06:15:24;;;;;;;2.25;0.65;;;;;;;;;;5050954;28;20107;-70
2022/10/22 06:17:51;;;;;;;0.60;0.60;;;;;;;;;;5049580;28;20052;-71
2022/10/22 06:20:17;;;;;;;2.35;0.63;;;;;;;;;;5048970;28;20495;-69
2022/10/22 06:22:44;;;;;;;1.95;0.70;;;;;;;;;;5052226;28;20102;-72
2022/10/22 06:25:13;;;;;;;2.17;0.82;;;;;;;;;;5050935;28;20052;-71
2022/10/22 06:27:39;;;;;;;0.77;0.63;;;;;;;;;;5052132;28;20052;-72
2022/10/22 06:30:07;;;;;;;0.85;0.70;;;;;;;;;;5051713;28;20107;-73
2022/10/22 06:32:33;;;;;;;0.60;0.60;;;;;;;;;;5052059;28;20103;-68
2022/10/22 06:35:00;;;;;;;5.80;1.00;;;;;;;;;;5051720;28;20071;-70
2022/10/22 06:37:26;;;;;;;5.70;0.70;;;;;;;;;;5052055;28;20049;-69
2022/10/22 06:39:53;;;;;;;2.53;0.60;;;;;;;;;;5051002;28;20041;-67
2022/10/22 06:42:20;;;;;;;1.35;0.80;;;;;;;;;;5052158;28;20462;-68
2022/10/22 06:44:46;;;;;;;5.05;1.27;;;;;;;;;;5038237;28;20049;-73
2022/10/22 06:47:13;;;;;;;2.05;0.60;;;;;;;;;;5041783;28;20044;-68
2022/10/22 06:49:39;;;;;;;1.58;0.60;;;;;;;;;;5050133;28;20053;-72
2022/10/22 06:52:06;;;;;;;2.78;1.10;;;;;;;;;;5049926;28;20057;-68
2022/10/22 06:54:33;;;;;;;2.15;0.60;;;;;;;;;;5050051;28;20048;-69
2022/10/22 06:56:59;;;;;;;2.20;0.80;;;;;;;;;;5050735;28;20507;-68
2022/10/22 06:59:26;;;;;;;1.77;0.80;;;;;;;;;;5050286;28;20052;-69
2022/10/22 07:01:53;;;;;;;0.73;0.65;;;;;;;;;;5024407;28;20495;-71
2022/10/22 07:04:20;;;;;;;1.73;0.80;;;;;;;;;;5047520;28;20045;-74
2022/10/22 07:06:50;;;;;;;3.92;1.00;;;;;;;;;;5024169;28;20155;-75
2022/10/22 07:09:17;;;;;;;3.58;2.35;;;;;;;;;;5012650;28;20049;-72
2022/10/22 07:11:49;;;;;;;3.72;2.63;;;;;;;;;;5044471;28;20561;-74
2022/10/22 07:14:16;;;;;;;2.28;1.35;;;;;;;;;;5041140;28;20286;-78
2022/10/22 07:17:10;;;;;;;1.58;1.10;;;;;;;;;;5017163;28;20442;-75
2022/10/22 07:19:37;;;;;;;1.63;0.77;;;;;;;;;;5054057;28;20144;-74
2022/10/22 07:22:04;;;;;;;1.23;0.40;;;;;;;;;;5041709;28;20045;-68
2022/10/22 07:24:30;;;;;;;0.82;0.45;;;;;;;;;;5048926;28;20091;-62
2022/10/22 07:26:57;;;;;;;1.75;0.65;;;;;;;;;;5049715;28;20048;-64
2022/10/22 07:29:24;;;;;;;1.23;0.57;;;;;;;;;;5049056;28;20103;-64
2022/10/22 07:31:50;;;;;;;0.70;0.45;;;;;;;;;;5049641;28;20049;-63
2022/10/22 07:34:17;;;;;;;0.95;0.50;;;;;;;;;;5050202;28;20049;-64
2022/10/22 07:36:49;;;;;;;1.17;0.50;;;;;;;;;;5050160;28;20115;-64
2022/10/22 07:39:15;;;;;;;4.90;1.10;;;;;;;;;;5048778;28;20451;-64
2022/10/22 07:41:42;;;;;;;1.83;0.60;;;;;;;;;;5049559;28;20052;-65
2022/10/22 07:44:09;;;;;;;0.57;0.43;;;;;;;;;;5050038;28;20542;-67
2022/10/22 07:46:35;;;;;;;1.67;1.13;;;;;;;;;;5054055;28;20126;-68
2022/10/22 07:49:03;;;;;;;1.13;1.00;;;;;;;;;;5053838;28;20465;-68
2022/10/22 07:51:30;;;;;;;0.90;0.57;;;;;;;;;;5054242;28;20114;-68
2022/10/22 07:53:56;;;;;;;3.38;0.80;;;;;;;;;;5054276;28;20053;-67
2022/10/22 07:56:23;;;;;;;2.20;0.88;;;;;;;;;;5054013;28;20474;-66
2022/10/22 07:58:50;;;;;;;1.17;0.60;;;;;;;;;;5052692;28;20052;-66
2022/10/22 08:01:17;;;;;;;2.13;1.30;;;;;;;;;;5053656;28;20053;-71
2022/10/22 08:03:43;;;;;;;2.22;1.10;;;;;;;;;;5054487;28;20049;-66
2022/10/22 08:06:12;;;;;;;1.83;1.48;;;;;;;;;;5054282;28;20053;-70
2022/10/22 08:08:39;;;;;;;1.00;0.73;;;;;;;;;;5052463;28;20049;-65
2022/10/22 08:11:06;;;;;;;1.70;0.45;;;;;;;;;;5053451;28;20056;-67
2022/10/22 08:13:33;;;;;;;0.50;0.35;;;;;;;;;;5052319;28;20110;-67
2022/10/22 08:16:00;;;;;;;2.13;0.60;;;;;;;;;;5053504;28;20523;-68
2022/10/22 08:18:27;;;;;;;1.60;0.60;;;;;;;;;;5053643;28;20410;-64
2022/10/22 08:20:54;;;;;;;0.40;0.40;;;;;;;;;;5053519;28;20499;-63
2022/10/22 08:23:21;;;;;;;1.73;0.70;;;;;;;;;;5054577;28;20048;-64
2022/10/22 08:25:53;;;;;;;2.75;0.80;;;;;;;;;;5054145;28;20053;-64
2022/10/22 08:28:21;;;;;;;6.05;0.90;;;;;;;;;;5053723;28;20132;-63
2022/10/22 08:30:48;;;;;;;2.25;0.45;;;;;;;;;;5053378;28;20052;-64
2022/10/22 08:33:15;;;;;;;2.42;0.70;;;;;;;;;;5054124;28;20053;-64
2022/10/22 08:35:46;;;;;;;0.70;0.52;;;;;;;;;;5054081;28;20053;-64
2022/10/22 08:38:12;;;;;;;1.27;0.95;;;;;;;;;;5052421;28;20099;-63
2022/10/22 08:40:39;;;;;;;2.90;0.70;;;;;;;;;;5053916;28;20048;-64
2022/10/22 08:43:43;;;;;;;1.02;0.60;;;;;;;;;;5036722;28;20209;-65
2022/10/22 08:46:19;;;;;;;0.80;0.70;;;;;;;;;;5053996;28;20053;-64
2022/10/22 08:48:53;;;;;;;2.30;0.70;;;;;;;;;;5051960;28;20462;-64
2022/10/22 08:51:22;;;;;;;1.17;0.60;;;;;;;;;;5052470;28;20144;-64
2022/10/22 08:53:49;;;;;;;0.68;0.52;;;;;;;;;;5053891;28;20458;-64
2022/10/22 08:56:16;;;;;;;2.17;0.82;;;;;;;;;;5053363;28;20116;-65
2022/10/22 08:58:47;;;;;;;1.00;0.50;;;;;;;;;;5051839;28;20581;-65
2022/10/22 09:01:23;;;;;;;0.80;0.57;;;;;;;;;;5052656;28;20463;-64
2022/10/22 09:04:04;;;;;;;2.13;0.77;;;;;;;;;;5052305;28;20111;-64
2022/10/22 09:06:32;;;;;;;2.60;0.63;;;;;;;;;;5052715;28;20048;-63
2022/10/22 09:08:59;;;;;;;2.08;0.70;;;;;;;;;;5035342;28;20049;-63
2022/10/22 09:11:34;;;;;;;2.53;0.70;;;;;;;;;;5052653;28;20049;-63
2022/10/22 09:14:02;;;;;;;2.38;0.70;;;;;;;;;;5052322;28;20053;-62
2022/10/22 09:16:34;;;;;;;5.88;1.35;;;;;;;;;;5053688;28;20060;-64
2022/10/22 09:19:07;;;;;;;1.15;0.70;;;;;;;;;;5052729;28;20052;-63
2022/10/22 09:21:55;;;;;;;0.50;0.50;;;;;;;;;;5053304;28;20462;-64
2022/10/22 09:24:39;;;;;;;1.08;0.82;;;;;;;;;;5053185;28;20052;-63
2022/10/22 09:27:17;;;;;;;1.95;0.98;;;;;;;;;;5053199;28;20103;-64
2022/10/22 09:29:45;;;;;;;2.75;0.80;;;;;;;;;;5051148;28;20053;-63
2022/10/22 09:32:13;;;;;;;1.83;0.70;;;;;;;;;;5053276;28;20084;-65
2022/10/22 09:34:40;;;;;;;3.70;0.80;;;;;;;;;;5053188;28;20041;-64
2022/10/22 09:37:08;;;;;;;0.80;0.50;;;;;;;;;;5051264;28;20057;-64
2022/10/22 09:39:43;;;;;;;3.08;1.20;;;;;;;;;;5052468;28;20106;-64
2022/10/22 09:42:13;;;;;;;0.88;0.70;;;;;;;;;;5053118;28;20053;-63
2022/10/22 09:44:39;;;;;;;3.80;0.82;;;;;;;;;;5051671;28;20045;-64
2022/10/22 09:47:31;;;;;;;1.63;0.70;;;;;;;;;;5052749;28;20053;-65
2022/10/22 09:50:19;;;;;;;1.52;0.63;;;;;;;;;;5051084;28;20049;-64
2022/10/22 09:52:59;;;;;;;1.50;0.77;;;;;;;;;;5051786;28;20060;-64
2022/10/22 09:55:26;;;;;;;1.48;0.77;;;;;;;;;;5052773;28;20098;-64
2022/10/22 09:57:55;;;;;;;1.85;0.70;;;;;;;;;;5051956;28;20467;-64
2022/10/22 10:00:23;;;;;;;0.60;0.50;;;;;;;;;;5052277;28;20427;-64
2022/10/22 10:02:58;;;;;;;4.05;0.60;;;;;;;;;;5052831;28;20048;-64
2022/10/22 10:05:35;;;;;;;1.17;0.85;;;;;;;;;;5031341;28;20049;-63
2022/10/22 10:08:11;;;;;;;2.88;0.60;;;;;;;;;;5031390;28;20528;-63
2022/10/22 10:10:44;;;;;;;2.60;0.73;;;;;;;;;;5032085;28;20050;-64
2022/10/22 10:13:30;;;;;;;0.50;0.40;;;;;;;;;;5031641;28;20471;-64
2022/10/22 10:16:11;;;;;;;2.42;0.60;;;;;;;;;;5032361;28;20115;-63
2022/10/22 10:19:20;;;;;;;3.25;0.70;;;;;;;;;;5049069;28;20127;-64
2022/10/22 10:22:01;;;;;;;3.45;0.75;;;;;;;;;;5024036;28;20045;-64
2022/10/22 10:24:37;;;;;;;1.05;0.63;;;;;;;;;;5050992;28;20045;-64
2022/10/22 10:27:08;;;;;;;1.75;0.47;;;;;;;;;;5035138;28;20056;-64
2022/10/22 10:29:48;;;;;;;0.80;0.60;;;;;;;;;;5034497;28;20102;-63
2022/10/22 10:32:48;;;;;;;0.95;0.70;;;;;;;;;;5050805;28;20053;-64
2022/10/22 10:35:15;;;;;;;2.22;1.02;;;;;;;;;;5050881;28;20048;-64
2022/10/22 10:37:47;;;;;;;0.63;0.60;;;;;;;;;;5051921;28;20076;-62
2022/10/22 10:40:29;;;;;;;0.85;0.40;;;;;;;;;;5052209;28;20049;-64
2022/10/22 10:43:11;;;;;;;0.93;0.45;;;;;;;;;;5051839;28;20099;-65
2022/10/22 10:45:53;;;;;;;2.20;0.40;;;;;;;;;;5050469;28;20048;-64
2022/10/22 10:48:21;;;;;;;0.90;0.50;;;;;;;;;;5049861;28;20492;-63
2022/10/22 10:51:03;;;;;;;1.40;0.70;;;;;;;;;;5051960;28;20060;-64
2022/10/22 10:53:54;;;;;;;3.38;0.98;;;;;;;;;;5052168;28;20511;-63
2022/10/22 10:56:26;;;;;;;3.90;0.60;;;;;;;;;;5035126;28;20053;-64
2022/10/22 10:58:56;;;;;;;2.97;0.73;;;;;;;;;;5050515;28;20057;-64
2022/10/22 11:01:42;;;;;;;1.33;0.60;;;;;;;;;;5051992;28;20053;-64
2022/10/22 11:04:30;;;;;;;0.63;0.55;;;;;;;;;;5051935;28;20095;-63
2022/10/22 11:06:57;;;;;;;1.20;0.40;;;;;;;;;;5051861;28;20103;-64
2022/10/22 11:09:47;;;;;;;1.35;0.50;;;;;;;;;;5050164;28;20049;-64
2022/10/22 11:12:23;;;;;;;0.77;0.40;;;;;;;;;;5034266;28;20094;-63
2022/10/22 11:15:02;;;;;;;4.03;1.08;;;;;;;;;;5050609;28;20049;-64
2022/10/22 11:17:37;;;;;;;1.02;0.40;;;;;;;;;;5034834;28;20056;-64
2022/10/22 11:20:31;;;;;;;0.70;0.50;;;;;;;;;;5035504;28;20126;-64
2022/10/22 11:23:08;;;;;;;2.80;0.77;;;;;;;;;;5031935;28;20052;-64
2022/10/22 11:25:50;;;;;;;1.50;0.70;;;;;;;;;;5054968;28;20405;-64
2022/10/22 11:28:31;;;;;;;1.35;0.68;;;;;;;;;;5055092;28;20053;-64
2022/10/22 11:31:15;;;;;;;0.77;0.60;;;;;;;;;;5039349;28;20074;-63
2022/10/22 11:33:45;;;;;;;2.55;0.70;;;;;;;;;;5054625;28;20049;-64
2022/10/22 11:36:12;;;;;;;4.07;1.05;;;;;;;;;;5055696;28;20095;-64
2022/10/22 11:38:38;;;;;;;0.93;0.60;;;;;;;;;;5036903;28;20049;-63
2022/10/22 11:41:13;;;;;;;1.23;0.40;;;;;;;;;;5054528;28;20045;-63
2022/10/22 11:44:04;;;;;;;2.35;0.60;;;;;;;;;;5037719;28;20503;-64
2022/10/22 11:46:58;;;;;;;2.78;0.77;;;;;;;;;;5053933;28;20107;-64
2022/10/22 11:49:42;;;;;;;0.82;0.40;;;;;;;;;;5054838;28;20520;-63
2022/10/22 11:52:31;;;;;;;2.75;0.50;;;;;;;;;;5055608;28;20114;-64
2022/10/22 11:55:01;;;;;;;0.68;0.50;;;;;;;;;;5051236;28;20045;-64
2022/10/22 11:57:36;;;;;;;0.65;0.32;;;;;;;;;;5057676;28;20053;-63
2022/10/22 12:00:41;;;;;;;1.85;0.80;;;;;;;;;;5054291;28;20102;-64
2022/10/22 12:03:31;;;;;;;2.30;0.50;;;;;;;;;;5054176;28;20105;-63
2022/10/22 12:06:10;;;;;;;2.05;0.50;;;;;;;;;;5055197;28;20041;-63
2022/10/22 12:09:04;;;;;;;1.10;0.50;;;;;;;;;;5052987;28;20099;-63
2022/10/22 12:11:35;;;;;;;1.85;0.43;;;;;;;;;;5050823;28;20056;-63
2022/10/22 12:14:28;;;;;;;1.88;0.70;;;;;;;;;;5053705;28;20107;-64
2022/10/22 12:17:02;;;;;;;3.08;0.50;;;;;;;;;;5054868;28;20044;-64
2022/10/22 12:19:30;;;;;;;3.10;0.50;;;;;;;;;;5052794;28;20102;-64
2022/10/22 12:21:59;;;;;;;1.13;0.30;;;;;;;;;;5053759;28;20120;-64
2022/10/22 12:24:29;;;;;;;0.93;0.57;;;;;;;;;;5037300;28;20053;-64
2022/10/22 12:26:56;;;;;;;1.05;0.50;;;;;;;;;;5037036;28;20045;-64
2022/10/22 12:29:24;;;;;;;2.47;0.60;;;;;;;;;;5053956;28;20104;-64
2022/10/22 12:31:51;;;;;;;3.63;0.68;;;;;;;;;;5053417;28;20095;-64
2022/10/22 12:34:21;;;;;;;0.80;0.50;;;;;;;;;;5053231;28;20110;-63
2022/10/22 12:36:49;;;;;;;2.35;0.57;;;;;;;;;;5054453;28;20535;-64
2022/10/22 12:39:18;;;;;;;3.97;1.00;;;;;;;;;;5053703;28;20048;-64
2022/10/22 12:41:45;;;;;;;4.05;0.80;;;;;;;;;;5054360;28;20052;-64
2022/10/22 12:44:14;;;;;;;1.90;0.77;;;;;;;;;;5054173;28;20083;-63
2022/10/22 12:46:42;;;;;;;1.23;0.73;;;;;;;;;;5054086;28;20052;-64
2022/10/22 12:49:20;;;;;;;2.83;0.50;;;;;;;;;;5053471;28;20103;-64
2022/10/22 12:51:47;;;;;;;0.73;0.50;;;;;;;;;;5036603;28;20134;-63
2022/10/22 12:54:30;;;;;;;1.23;0.70;;;;;;;;;;5036868;28;20048;-63
2022/10/22 12:56:57;;;;;;;1.90;0.70;;;;;;;;;;5052522;28;20553;-63
2022/10/22 12:59:34;;;;;;;2.58;0.73;;;;;;;;;;5053336;28;20061;-62
2022/10/22 13:02:01;;;;;;;1.88;0.80;;;;;;;;;;5053996;28;20053;-63
2022/10/22 13:04:34;;;;;;;2.70;1.00;;;;;;;;;;5053669;28;20428;-64
2022/10/22 13:07:15;;;;;;;4.10;0.60;;;;;;;;;;5054288;28;20053;-63
2022/10/22 13:09:59;;;;;;;1.25;0.40;;;;;;;;;;5053369;28;20412;-63
2022/10/22 13:12:33;;;;;;;1.02;0.50;;;;;;;;;;5052716;28;20045;-64
2022/10/22 13:15:20;;;;;;;1.25;0.50;;;;;;;;;;5053755;28;20118;-64
2022/10/22 13:17:48;;;;;;;1.40;0.57;;;;;;;;;;5053015;28;20110;-63
2022/10/22 13:20:22;;;;;;;1.73;0.60;;;;;;;;;;5053397;28;20106;-63
2022/10/22 13:22:59;;;;;;;2.42;0.40;;;;;;;;;;5053731;28;20080;-63
2022/10/22 13:25:32;;;;;;;2.17;0.50;;;;;;;;;;5053641;28;20048;-63
2022/10/22 13:28:25;;;;;;;4.00;0.95;;;;;;;;;;5051937;28;20057;-63
2022/10/22 13:31:07;;;;;;;;;;;;;;;;;;5053836;28;20053;-64
2022/10/22 13:33:35;;;;;;;0.57;0.40;;;;;;;;;;5053350;28;19947;-64
2022/10/22 13:36:02;;;;;;;3.13;0.70;;;;;;;;;;5052146;28;20052;-63
2022/10/22 13:38:29;;;;;;;1.63;0.40;;;;;;;;;;5051447;28;20107;-63
2022/10/22 13:40:56;;;;;;;1.80;0.45;;;;;;;;;;5053443;28;20102;-64
2022/10/22 13:43:24;;;;;;;2.90;0.50;;;;;;;;;;5053393;28;20053;-64
2022/10/22 13:45:56;;;;;;;1.33;0.50;;;;;;;;;;5053054;28;20095;-64
2022/10/22 13:48:23;;;;;;;2.22;0.40;;;;;;;;;;5051549;28;20523;-65
2022/10/22 13:50:50;;;;;;;3.25;0.50;;;;;;;;;;5052998;28;20053;-64
2022/10/22 13:53:21;;;;;;;1.90;0.60;;;;;;;;;;5051706;28;20466;-65
2022/10/22 13:55:49;;;;;;;0.85;0.50;;;;;;;;;;5051949;28;20049;-64
2022/10/22 13:58:22;;;;;;;3.10;0.60;;;;;;;;;;5051962;28;20056;-64
2022/10/22 14:00:57;;;;;;;1.73;0.80;;;;;;;;;;5053864;28;20075;-64
2022/10/22 14:03:31;;;;;;;3.50;0.70;;;;;;;;;;5052095;28;20500;-64
2022/10/22 14:05:58;;;;;;;2.67;0.63;;;;;;;;;;5051560;28;20045;-64
2022/10/22 14:08:25;;;;;;;2.17;0.60;;;;;;;;;;5051227;28;20048;-64
2022/10/22 14:10:52;;;;;;;3.95;0.93;;;;;;;;;;5052658;28;20049;-64
2022/10/22 14:13:20;;;;;;;1.35;0.70;;;;;;;;;;5052662;28;20076;-65
2022/10/22 14:15:47;;;;;;;1.63;0.60;;;;;;;;;;5052588;28;20057;-64
2022/10/22 14:18:22;;;;;;;1.92;0.70;;;;;;;;;;5051024;28;20490;-64
2022/10/22 14:20:51;;;;;;;1.48;0.60;;;;;;;;;;5051666;28;20123;-64
2022/10/22 14:23:19;;;;;;;2.15;0.45;;;;;;;;;;5051495;28;20068;-63
2022/10/22 14:25:46;;;;;;;1.92;0.60;;;;;;;;;;5052460;28;20049;-63
2022/10/22 14:28:13;;;;;;;1.60;0.50;;;;;;;;;;5051658;28;20049;-64
2022/10/22 14:30:40;;;;;;;0.82;0.50;;;;;;;;;;5052050;28;20045;-64
2022/10/22 14:33:15;;;;;;;2.83;0.45;;;;;;;;;;5052385;28;20079;-64
2022/10/22 14:35:42;;;;;;;0.77;0.52;;;;;;;;;;5051278;28;20487;-65
2022/10/22 14:38:09;;;;;;;1.55;0.50;;;;;;;;;;5051896;28;20057;-65
2022/10/22 14:40:37;;;;;;;0.63;0.50;;;;;;;;;;5050445;28;20521;-64
2022/10/22 14:43:04;;;;;;;1.95;0.45;;;;;;;;;;5051083;28;20053;-65
2022/10/22 14:45:31;;;;;;;4.40;0.50;;;;;;;;;;5051964;28;20462;-64
2022/10/22 14:47:57;;;;;;;2.60;0.60;;;;;;;;;;5051790;28;20106;-64
2022/10/22 14:50:24;;;;;;;1.35;0.70;;;;;;;;;;5051926;28;20048;-64
2022/10/22 14:52:51;;;;;;;4.20;0.95;;;;;;;;;;5051952;28;20110;-64
2022/10/22 14:55:18;;;;;;;2.92;0.82;;;;;;;;;;5051115;28;20500;-64
2022/10/22 14:57:45;;;;;;;2.05;0.70;;;;;;;;;;5051677;28;20049;-63
2022/10/22 15:00:14;;;;;;;2.33;0.98;;;;;;;;;;5051421;28;20076;-64
2022/10/22 15:02:41;;;;;;;1.90;0.70;;;;;;;;;;5052223;28;20099;-64
2022/10/22 15:05:08;;;;;;;2.70;0.80;;;;;;;;;;5051863;28;20076;-64
2022/10/22 15:07:35;;;;;;;2.33;0.80;;;;;;;;;;5051856;28;20056;-63